createdAt,value
2022-07-31T00:02:08.972Z,3.97
2022-07-31T00:04:36.149Z,4.70
2022-07-31T00:07:03.989Z,5.25
2022-07-31T00:09:52.309Z,4.43
2022-07-31T00:12:18.600Z,4.25
2022-07-31T00:14:46.269Z,4.68
2022-07-31T00:17:13.392Z,4.53
2022-07-31T00:19:41.604Z,4.13
2022-07-31T00:22:10.879Z,4.43
2022-07-31T00:24:38.065Z,4.30
2022-07-31T00:27:05.803Z,4.13
2022-07-31T00:29:33.414Z,4.75
2022-07-31T00:32:00.590Z,4.60
2022-07-31T00:34:27.803Z,4.00
2022-07-31T00:36:55.104Z,4.22
2022-07-31T00:39:24.130Z,4.00
2022-07-31T00:41:51.622Z,3.90
2022-07-31T00:44:18.875Z,3.60
2022-07-31T00:46:46.055Z,3.22
2022-07-31T00:49:13.390Z,3.60
2022-07-31T00:51:40.930Z,4.10
2022-07-31T00:54:08.775Z,3.40
2022-07-31T00:56:36.132Z,3.80
2022-07-31T00:59:03.565Z,3.45
2022-07-31T01:01:31.070Z,3.72
2022-07-31T01:03:58.388Z,3.45
2022-07-31T01:06:25.601Z,3.60
2022-07-31T01:08:52.991Z,3.40
2022-07-31T01:11:23.820Z,3.20
2022-07-31T01:13:54.009Z,3.50
2022-07-31T01:16:21.933Z,3.22
2022-07-31T01:18:50.117Z,3.05
2022-07-31T01:21:20.125Z,3.17
2022-07-31T01:24:19.633Z,3.17
2022-07-31T01:26:50.456Z,3.90
2022-07-31T01:29:20.618Z,3.47
2022-07-31T01:31:54.491Z,3.20
2022-07-31T01:34:27.724Z,3.38
2022-07-31T01:36:59.058Z,3.08
2022-07-31T01:39:27.278Z,2.90
2022-07-31T01:42:03.561Z,2.72
2022-07-31T01:44:31.868Z,3.05
2022-07-31T01:46:59.033Z,2.88
2022-07-31T01:49:27.405Z,3.00
2022-07-31T01:51:55.269Z,2.90
2022-07-31T01:54:32.480Z,2.72
2022-07-31T01:57:00.080Z,3.00
2022-07-31T01:59:28.116Z,3.08
2022-07-31T02:01:59.279Z,3.08
2022-07-31T02:04:27.258Z,2.60
2022-07-31T02:06:54.860Z,2.70
2022-07-31T02:09:23.781Z,3.05
2022-07-31T02:11:54.454Z,2.55
2022-07-31T02:14:22.421Z,2.60
2022-07-31T02:16:50.151Z,2.83
2022-07-31T02:19:17.874Z,2.72
2022-07-31T02:21:45.560Z,2.60
2022-07-31T02:24:12.900Z,2.63
2022-07-31T02:26:41.001Z,3.15
2022-07-31T02:29:09.098Z,3.30
2022-07-31T02:31:48.601Z,3.20
2022-07-31T02:34:31.426Z,3.20
2022-07-31T02:36:59.857Z,3.22
2022-07-31T02:39:30.423Z,2.80
2022-07-31T02:44:27.704Z,2.63
2022-07-31T02:46:55.470Z,3.00
2022-07-31T02:49:22.762Z,2.58
2022-07-31T02:51:49.985Z,2.60
2022-07-31T02:54:18.040Z,2.17
2022-07-31T02:56:45.902Z,2.40
2022-07-31T02:59:13.102Z,2.75
2022-07-31T03:01:40.944Z,2.38
2022-07-31T03:04:08.317Z,2.65
2022-07-31T03:06:35.537Z,2.28
2022-07-31T03:09:02.948Z,2.17
2022-07-31T03:11:30.136Z,2.15
2022-07-31T03:13:59.365Z,1.80
2022-07-31T03:16:27.462Z,2.28
2022-07-31T03:18:56.175Z,2.15
2022-07-31T03:21:23.917Z,2.15
2022-07-31T03:23:51.393Z,2.10
2022-07-31T03:26:18.751Z,2.15
2022-07-31T03:28:46.037Z,2.65
2022-07-31T03:31:13.430Z,2.00
2022-07-31T03:33:40.617Z,2.70
2022-07-31T03:36:09.539Z,2.22
2022-07-31T03:38:40.979Z,2.10
2022-07-31T03:41:09.815Z,2.22
2022-07-31T03:43:46.846Z,2.00
2022-07-31T03:46:16.864Z,2.03
2022-07-31T03:48:44.108Z,2.05
2022-07-31T03:51:11.392Z,2.20
2022-07-31T03:53:38.945Z,2.00
2022-07-31T03:56:07.150Z,2.00
2022-07-31T03:58:34.664Z,1.83
2022-07-31T04:01:07.280Z,2.20
2022-07-31T04:03:39.370Z,2.17
2022-07-31T04:06:06.579Z,1.80
2022-07-31T04:08:34.118Z,2.00
2022-07-31T04:11:01.281Z,1.67
2022-07-31T04:13:28.637Z,1.88
2022-07-31T04:15:55.846Z,1.77
2022-07-31T04:18:23.046Z,2.10
2022-07-31T04:20:50.244Z,1.77
2022-07-31T04:23:17.470Z,2.08
2022-07-31T04:25:44.714Z,1.80
2022-07-31T04:28:11.972Z,1.92
2022-07-31T04:30:39.798Z,2.13
2022-07-31T04:33:06.954Z,2.13
2022-07-31T04:35:34.344Z,1.95
2022-07-31T04:38:01.588Z,2.50
2022-07-31T04:40:28.796Z,2.15
2022-07-31T04:42:56.129Z,2.13
2022-07-31T04:45:23.297Z,2.20
2022-07-31T04:47:50.499Z,1.83
2022-07-31T04:50:17.818Z,2.40
2022-07-31T04:52:44.976Z,2.38
2022-07-31T04:55:12.154Z,2.20
2022-07-31T04:57:39.385Z,2.63
2022-07-31T05:00:07.169Z,1.90
2022-07-31T05:02:34.410Z,2.28
2022-07-31T05:05:01.731Z,2.30
2022-07-31T05:07:29.188Z,2.10
2022-07-31T05:09:56.829Z,2.00
2022-07-31T05:12:24.034Z,1.95
2022-07-31T05:14:51.335Z,2.13
2022-07-31T05:17:18.493Z,2.40
2022-07-31T05:19:45.923Z,2.00
2022-07-31T05:22:13.093Z,1.90
2022-07-31T05:24:43.028Z,1.90
2022-07-31T05:27:10.293Z,2.00
2022-07-31T05:29:37.428Z,1.92
2022-07-31T05:32:05.126Z,2.17
2022-07-31T05:34:32.496Z,2.00
2022-07-31T05:37:02.610Z,1.98
2022-07-31T05:39:30.153Z,2.60
2022-07-31T05:41:57.591Z,2.28
2022-07-31T05:44:24.913Z,2.38
2022-07-31T05:49:19.467Z,2.45
2022-07-31T05:51:47.223Z,2.88
2022-07-31T05:54:14.605Z,2.55
2022-07-31T05:56:41.953Z,2.90
2022-07-31T05:59:09.767Z,3.13
2022-07-31T06:01:37.047Z,3.05
2022-07-31T06:04:04.465Z,3.28
2022-07-31T06:06:31.670Z,3.28
2022-07-31T06:09:04.039Z,3.35
2022-07-31T06:11:31.986Z,3.17
2022-07-31T06:13:59.126Z,3.55
2022-07-31T06:16:26.261Z,3.40
2022-07-31T06:18:53.768Z,3.40
2022-07-31T06:23:47.114Z,3.78
2022-07-31T06:26:14.611Z,3.30
2022-07-31T06:28:48.669Z,3.13
2022-07-31T06:31:22.487Z,3.42
2022-07-31T06:33:50.818Z,3.22
2022-07-31T06:36:18.491Z,3.55
2022-07-31T06:38:46.162Z,3.38
2022-07-31T06:41:36.664Z,3.17
2022-07-31T06:44:03.901Z,3.70
2022-07-31T06:46:31.082Z,4.10
2022-07-31T06:48:58.482Z,3.50
2022-07-31T06:51:33.220Z,3.28
2022-07-31T06:54:01.709Z,3.50
2022-07-31T06:56:29.547Z,3.22
2022-07-31T06:58:56.895Z,3.15
2022-07-31T07:01:24.170Z,3.20
2022-07-31T07:03:51.657Z,3.38
2022-07-31T07:06:19.107Z,3.33
2022-07-31T07:08:46.318Z,2.70
2022-07-31T07:11:13.771Z,2.80
2022-07-31T07:13:45.876Z,3.35
2022-07-31T07:16:14.839Z,3.40
2022-07-31T07:18:43.190Z,3.65
2022-07-31T07:21:10.730Z,3.22
2022-07-31T07:23:37.981Z,3.58
2022-07-31T07:26:05.374Z,3.97
2022-07-31T07:28:32.555Z,3.40
2022-07-31T07:30:59.832Z,3.83
2022-07-31T07:33:41.633Z,3.92
2022-07-31T07:36:23.075Z,4.10
2022-07-31T07:38:53.486Z,3.83
2022-07-31T07:41:22.000Z,4.60
2022-07-31T07:43:51.636Z,4.50
2022-07-31T07:46:19.735Z,3.28
2022-07-31T07:48:47.081Z,4.13
2022-07-31T07:51:14.311Z,3.78
2022-07-31T07:53:41.505Z,3.78
2022-07-31T07:56:08.709Z,4.38
2022-07-31T07:58:35.876Z,3.67
2022-07-31T08:01:03.093Z,3.85
2022-07-31T08:03:48.815Z,4.28
2022-07-31T08:06:17.609Z,3.70
2022-07-31T08:08:44.892Z,4.60
2022-07-31T08:11:17.480Z,3.88
2022-07-31T08:13:50.170Z,3.45
2022-07-31T08:16:18.901Z,4.03
2022-07-31T08:18:46.305Z,3.72
2022-07-31T08:21:13.465Z,4.03
2022-07-31T08:23:40.610Z,4.10
2022-07-31T08:26:10.619Z,4.05
2022-07-31T08:28:38.793Z,3.65
2022-07-31T08:31:06.017Z,4.03
2022-07-31T08:33:33.354Z,3.80
2022-07-31T08:36:01.229Z,3.55
2022-07-31T08:38:28.958Z,3.95
2022-07-31T08:40:56.294Z,3.95
2022-07-31T08:43:59.913Z,3.90
2022-07-31T08:46:11.534Z,3.58
2022-07-31T08:48:40.865Z,3.10
2022-07-31T08:51:11.651Z,3.17
2022-07-31T08:53:39.833Z,2.75
2022-07-31T08:56:08.774Z,2.78
2022-07-31T08:58:39.325Z,2.92
2022-07-31T09:01:07.620Z,3.15
2022-07-31T09:03:36.241Z,2.70
2022-07-31T09:06:03.972Z,3.27
2022-07-31T09:08:34.585Z,3.30
2022-07-31T09:11:02.601Z,3.40
2022-07-31T09:13:29.967Z,3.30
2022-07-31T09:16:00.370Z,2.95
2022-07-31T09:18:28.000Z,3.40
2022-07-31T09:20:56.509Z,2.75
2022-07-31T09:23:24.567Z,2.70
2022-07-31T09:25:56.476Z,3.03
2022-07-31T09:28:34.004Z,2.70
2022-07-31T09:31:01.548Z,2.63
2022-07-31T09:33:30.400Z,2.67
2022-07-31T09:35:58.450Z,2.70
2022-07-31T09:38:36.264Z,2.40
2022-07-31T09:41:53.361Z,2.40
2022-07-31T09:44:10.146Z,1.88
2022-07-31T09:46:45.087Z,2.08
2022-07-31T09:49:12.444Z,2.17
2022-07-31T09:51:43.501Z,1.85
2022-07-31T09:54:23.842Z,1.90
2022-07-31T09:56:51.032Z,1.60
2022-07-31T09:59:18.341Z,1.60
2022-07-31T10:01:48.957Z,1.50
2022-07-31T10:04:18.095Z,1.40
2022-07-31T10:06:49.246Z,1.90
2022-07-31T10:09:18.070Z,1.50
2022-07-31T10:11:46.085Z,1.60
2022-07-31T10:14:19.591Z,1.98
2022-07-31T10:16:47.793Z,1.60
2022-07-31T10:19:15.443Z,2.17
2022-07-31T10:21:44.666Z,1.75
2022-07-31T10:24:12.557Z,1.65
2022-07-31T10:26:59.809Z,1.80
2022-07-31T10:29:27.550Z,1.90
2022-07-31T10:32:00.055Z,1.50
2022-07-31T10:34:27.564Z,2.35
2022-07-31T10:36:57.384Z,1.85
2022-07-31T10:39:44.941Z,1.98
2022-07-31T10:42:34.380Z,2.20
2022-07-31T10:45:06.686Z,1.67
2022-07-31T10:47:33.969Z,1.83
2022-07-31T10:50:01.527Z,1.65
2022-07-31T10:52:38.096Z,1.92
2022-07-31T10:55:23.254Z,2.00
2022-07-31T10:57:56.034Z,2.13
2022-07-31T11:00:29.475Z,2.15
2022-07-31T11:02:57.893Z,1.83
2022-07-31T11:05:28.183Z,2.33
2022-07-31T11:10:22.864Z,1.90
2022-07-31T11:13:02.064Z,2.40
2022-07-31T11:15:29.608Z,2.42
2022-07-31T11:18:23.841Z,2.35
2022-07-31T11:20:47.064Z,2.30
2022-07-31T11:23:17.956Z,1.92
2022-07-31T11:25:46.563Z,2.20
2022-07-31T11:28:23.827Z,2.20
2022-07-31T11:30:52.258Z,1.98
2022-07-31T11:33:31.707Z,2.40
2022-07-31T11:36:20.283Z,2.20
2022-07-31T11:38:52.102Z,2.10
2022-07-31T11:41:22.230Z,2.53
2022-07-31T11:43:51.114Z,2.20
2022-07-31T11:46:26.066Z,2.30
2022-07-31T11:48:54.116Z,2.30
2022-07-31T11:51:21.778Z,2.50
2022-07-31T11:53:56.674Z,2.38
2022-07-31T11:56:26.219Z,2.17
2022-07-31T11:58:54.697Z,2.33
2022-07-31T12:01:25.612Z,2.08
2022-07-31T12:03:52.796Z,2.40
2022-07-31T12:06:20.768Z,2.40
2022-07-31T12:08:48.939Z,1.98
2022-07-31T12:11:17.923Z,2.35
2022-07-31T12:13:51.039Z,2.30
2022-07-31T12:16:21.199Z,2.47
2022-07-31T12:18:56.994Z,2.45
2022-07-31T12:21:33.230Z,2.10
2022-07-31T12:24:00.873Z,2.20
2022-07-31T12:26:32.671Z,2.25
2022-07-31T12:29:10.246Z,2.63
2022-07-31T12:31:48.206Z,2.30
2022-07-31T12:34:31.733Z,2.60
2022-07-31T12:37:09.702Z,2.40
2022-07-31T12:39:53.885Z,2.35
2022-07-31T12:42:30.839Z,2.50
2022-07-31T12:45:01.230Z,2.25
2022-07-31T12:47:51.200Z,2.53
2022-07-31T12:50:19.610Z,2.22
2022-07-31T12:52:46.757Z,2.35
2022-07-31T12:55:17.345Z,2.40
2022-07-31T12:57:51.006Z,2.70
2022-07-31T13:00:20.147Z,2.63
2022-07-31T13:02:47.458Z,2.17
2022-07-31T13:05:14.689Z,2.33
2022-07-31T13:07:41.957Z,2.47
2022-07-31T13:10:15.964Z,3.22
2022-07-31T13:15:18.399Z,2.30
2022-07-31T13:17:48.202Z,2.57
2022-07-31T13:20:18.286Z,2.75
2022-07-31T13:22:45.632Z,2.58
2022-07-31T13:25:12.988Z,2.15
2022-07-31T13:27:41.575Z,2.08
2022-07-31T13:30:09.417Z,2.65
2022-07-31T13:32:36.773Z,2.40
2022-07-31T13:35:26.510Z,2.90
2022-07-31T13:37:51.298Z,2.92
2022-07-31T13:40:19.670Z,2.17
2022-07-31T13:42:46.807Z,2.30
2022-07-31T13:45:14.025Z,2.28
2022-07-31T13:47:51.731Z,2.30
2022-07-31T13:50:19.865Z,2.40
2022-07-31T13:52:47.005Z,2.65
2022-07-31T13:55:14.369Z,2.47
2022-07-31T13:57:41.577Z,2.60
2022-07-31T14:00:09.128Z,2.70
2022-07-31T14:02:36.327Z,2.50
2022-07-31T14:05:03.673Z,2.78
2022-07-31T14:07:47.845Z,2.80
2022-07-31T14:10:20.874Z,2.58
2022-07-31T14:12:48.400Z,3.13
2022-07-31T14:15:16.587Z,2.90
2022-07-31T14:17:43.896Z,2.92
2022-07-31T14:20:12.091Z,3.13
2022-07-31T14:22:39.278Z,2.67
2022-07-31T14:25:06.603Z,2.65
2022-07-31T14:27:34.582Z,2.42
2022-07-31T14:30:01.936Z,2.47
2022-07-31T14:32:30.830Z,3.20
2022-07-31T14:34:58.182Z,2.58
2022-07-31T14:37:25.526Z,3.00
2022-07-31T14:39:52.841Z,2.55
2022-07-31T14:42:22.361Z,2.53
2022-07-31T14:44:53.594Z,2.92
2022-07-31T14:47:20.805Z,2.70
2022-07-31T14:50:09.871Z,3.03
2022-07-31T14:52:35.247Z,3.08
2022-07-31T14:55:02.467Z,3.30
2022-07-31T14:57:31.432Z,3.10
2022-07-31T15:00:01.828Z,2.70
2022-07-31T15:04:56.233Z,2.50
2022-07-31T15:07:45.827Z,2.72
2022-07-31T15:10:12.061Z,2.75
2022-07-31T15:12:39.474Z,2.35
2022-07-31T15:15:07.459Z,2.22
2022-07-31T15:17:34.659Z,2.75
2022-07-31T15:20:01.970Z,2.97
2022-07-31T15:22:29.118Z,2.90
2022-07-31T15:24:56.372Z,2.63
2022-07-31T15:27:25.074Z,2.78
2022-07-31T15:30:04.457Z,3.00
2022-07-31T15:32:38.126Z,2.55
2022-07-31T15:35:06.760Z,2.63
2022-07-31T15:37:34.907Z,2.70
2022-07-31T15:40:03.769Z,2.70
2022-07-31T15:42:32.013Z,2.28
2022-07-31T15:44:59.239Z,2.50
2022-07-31T15:47:26.566Z,2.60
2022-07-31T15:49:53.717Z,2.55
2022-07-31T15:52:21.011Z,2.50
2022-07-31T15:54:51.446Z,2.33
2022-07-31T15:57:20.065Z,2.80
2022-07-31T15:59:47.278Z,2.55
2022-07-31T16:02:15.099Z,2.47
2022-07-31T16:04:53.426Z,2.60
2022-07-31T16:08:30.114Z,2.25
2022-07-31T16:10:16.287Z,2.40
2022-07-31T16:12:44.833Z,2.40
2022-07-31T16:15:12.661Z,2.65
2022-07-31T16:17:40.349Z,2.78
2022-07-31T16:20:08.948Z,2.50
2022-07-31T16:22:37.114Z,2.60
2022-07-31T16:25:04.526Z,2.50
2022-07-31T16:27:31.968Z,2.40
2022-07-31T16:30:01.235Z,2.65
2022-07-31T16:32:29.738Z,2.83
2022-07-31T16:35:00.589Z,2.42
2022-07-31T16:37:50.411Z,2.40
2022-07-31T16:40:28.229Z,2.45
2022-07-31T16:42:56.785Z,2.47
2022-07-31T16:45:24.307Z,2.60
2022-07-31T16:47:52.160Z,2.55
2022-07-31T16:50:19.623Z,2.53
2022-07-31T16:52:50.090Z,2.67
2022-07-31T16:55:20.230Z,2.45
2022-07-31T16:57:47.485Z,2.20
2022-07-31T17:00:14.817Z,2.55
2022-07-31T17:02:42.022Z,2.42
2022-07-31T17:05:09.672Z,2.33
2022-07-31T17:07:36.857Z,2.33
2022-07-31T17:10:04.352Z,2.60
2022-07-31T17:12:31.654Z,2.28
2022-07-31T17:14:58.890Z,2.63
2022-07-31T17:17:26.054Z,2.60
2022-07-31T17:19:55.181Z,2.80
2022-07-31T17:22:22.633Z,2.30
2022-07-31T17:24:51.803Z,2.47
2022-07-31T17:27:19.652Z,2.55
2022-07-31T17:29:46.907Z,2.40
2022-07-31T17:32:14.093Z,2.50
2022-07-31T17:34:45.113Z,2.70
2022-07-31T17:37:12.363Z,2.50
2022-07-31T17:39:39.627Z,2.85
2022-07-31T17:42:09.496Z,2.50
2022-07-31T17:44:36.854Z,2.95
2022-07-31T17:47:04.990Z,2.85
2022-07-31T17:49:32.756Z,2.58
2022-07-31T17:52:00.558Z,3.00
2022-07-31T17:54:28.771Z,2.55
2022-07-31T17:56:56.180Z,2.30
2022-07-31T17:59:23.635Z,2.85
2022-07-31T18:01:52.367Z,2.80
2022-07-31T18:04:21.411Z,2.85
2022-07-31T18:06:54.390Z,2.70
2022-07-31T18:09:23.583Z,2.45
2022-07-31T18:11:51.668Z,2.60
2022-07-31T18:14:18.989Z,2.45
2022-07-31T18:16:46.733Z,2.70
2022-07-31T18:19:14.017Z,2.55
2022-07-31T18:21:41.237Z,2.80
2022-07-31T18:24:08.672Z,2.60
2022-07-31T18:26:37.223Z,3.13
2022-07-31T18:29:04.486Z,2.97
2022-07-31T18:31:35.467Z,3.13
2022-07-31T18:34:04.367Z,2.65
2022-07-31T18:36:32.224Z,2.83
2022-07-31T18:38:59.498Z,2.78
2022-07-31T18:41:26.710Z,2.42
2022-07-31T18:43:54.136Z,2.90
2022-07-31T18:46:21.299Z,3.00
2022-07-31T18:48:54.567Z,2.90
2022-07-31T18:51:23.334Z,3.33
2022-07-31T18:53:50.891Z,3.00
2022-07-31T18:56:18.113Z,2.45
2022-07-31T18:58:45.328Z,3.20
2022-07-31T19:01:12.591Z,2.80
2022-07-31T19:03:39.798Z,2.70
2022-07-31T19:06:07.105Z,2.80
2022-07-31T19:08:34.467Z,2.60
2022-07-31T19:11:01.655Z,2.92
2022-07-31T19:13:29.385Z,2.47
2022-07-31T19:15:56.562Z,2.78
2022-07-31T19:18:28.102Z,2.70
2022-07-31T19:21:22.761Z,2.30
2022-07-31T19:23:46.203Z,2.50
2022-07-31T19:26:13.547Z,2.83
2022-07-31T19:28:43.160Z,2.88
2022-07-31T19:31:11.137Z,2.42
2022-07-31T19:33:38.447Z,2.70
2022-07-31T19:36:05.904Z,2.65
2022-07-31T19:38:35.566Z,2.38
2022-07-31T19:41:02.938Z,2.45
2022-07-31T19:43:30.580Z,2.78
2022-07-31T19:46:02.604Z,2.50
2022-07-31T19:48:39.819Z,2.78
2022-07-31T19:51:06.982Z,2.60
2022-07-31T19:53:34.193Z,2.58
2022-07-31T19:56:05.661Z,2.65
2022-07-31T19:58:34.306Z,2.50
2022-07-31T20:01:01.620Z,3.17
2022-07-31T20:03:29.649Z,2.50
2022-07-31T20:05:57.133Z,2.55
2022-07-31T20:08:24.517Z,2.38
2022-07-31T20:10:51.824Z,2.85
2022-07-31T20:13:19.397Z,2.53
2022-07-31T20:15:52.519Z,2.42
2022-07-31T20:18:29.959Z,2.97
2022-07-31T20:20:58.499Z,2.72
2022-07-31T20:23:28.805Z,2.72
2022-07-31T20:25:56.235Z,3.85
2022-07-31T20:28:23.668Z,4.93
2022-07-31T20:30:50.889Z,6.22
2022-07-31T20:33:18.390Z,7.30
2022-07-31T20:35:47.455Z,7.32
2022-07-31T20:38:16.734Z,7.65
2022-07-31T20:40:53.063Z,8.00
2022-07-31T20:43:22.632Z,6.90
2022-07-31T20:45:49.951Z,6.38
2022-07-31T20:48:23.759Z,5.85
2022-07-31T20:50:51.373Z,4.53
2022-07-31T20:53:19.314Z,3.95
2022-07-31T20:55:49.257Z,3.75
2022-07-31T20:58:17.151Z,3.30
2022-07-31T21:00:45.403Z,3.40
2022-07-31T21:03:12.697Z,2.90
2022-07-31T21:05:40.233Z,3.00
2022-07-31T21:08:07.497Z,3.70
2022-07-31T21:10:35.524Z,3.00
2022-07-31T21:13:02.835Z,2.80
2022-07-31T21:15:43.956Z,3.08
2022-07-31T21:18:16.371Z,3.30
2022-07-31T21:20:50.751Z,2.60
2022-07-31T21:23:21.412Z,3.00
2022-07-31T21:25:48.726Z,2.97
2022-07-31T21:28:16.076Z,3.67
2022-07-31T21:30:43.571Z,2.92
2022-07-31T21:33:10.797Z,3.10
2022-07-31T21:35:39.890Z,3.22
2022-07-31T21:38:10.442Z,3.03
2022-07-31T21:40:39.421Z,3.47
2022-07-31T21:43:06.783Z,2.97
2022-07-31T21:45:50.981Z,2.83
2022-07-31T21:48:22.962Z,2.90
2022-07-31T21:50:50.313Z,2.92
2022-07-31T21:53:17.566Z,3.08
2022-07-31T21:55:44.963Z,2.92
2022-07-31T21:58:12.354Z,2.90
2022-07-31T22:00:39.550Z,3.20
2022-07-31T22:03:07.177Z,2.97
2022-07-31T22:05:53.687Z,3.22
2022-07-31T22:08:21.127Z,3.15
2022-07-31T22:10:50.368Z,2.95
2022-07-31T22:13:17.613Z,3.33
2022-07-31T22:15:52.596Z,3.30
2022-07-31T22:18:32.446Z,2.85
2022-07-31T22:21:00.354Z,3.45
2022-07-31T22:23:28.402Z,2.78
2022-07-31T22:25:56.190Z,2.83
2022-07-31T22:28:23.858Z,2.80
2022-07-31T22:30:51.659Z,2.83
2022-07-31T22:33:19.624Z,3.08
2022-07-31T22:35:59.729Z,3.08
2022-07-31T22:38:28.585Z,2.70
2022-07-31T22:40:55.780Z,2.90
2022-07-31T22:44:09.962Z,3.10
2022-07-31T22:46:11.971Z,3.15
2022-07-31T22:48:40.706Z,3.05
2022-07-31T22:51:08.787Z,3.20
2022-07-31T22:53:36.357Z,3.45
2022-07-31T22:56:03.668Z,3.58
2022-07-31T22:58:30.826Z,3.75
2022-07-31T23:00:58.063Z,3.50
2022-07-31T23:03:25.217Z,3.85
2022-07-31T23:06:02.607Z,4.03
2022-07-31T23:08:39.755Z,4.03
2022-07-31T23:11:06.884Z,3.70
2022-07-31T23:13:34.006Z,4.25
2022-07-31T23:16:01.321Z,3.95
2022-07-31T23:18:28.493Z,3.80
2022-07-31T23:20:55.663Z,3.70
2022-07-31T23:23:22.856Z,4.13
2022-07-31T23:25:50.437Z,3.53
2022-07-31T23:28:17.598Z,3.00
2022-07-31T23:30:44.840Z,3.50
2022-07-31T23:33:14.063Z,3.78
2022-07-31T23:35:41.193Z,3.90
2022-07-31T23:38:08.447Z,3.53
2022-07-31T23:40:35.693Z,3.15
2022-07-31T23:43:02.873Z,3.10
2022-07-31T23:45:30.124Z,3.22
2022-07-31T23:47:59.022Z,3.47
2022-07-31T23:50:27.007Z,3.22
2022-07-31T23:52:54.449Z,3.20
2022-07-31T23:55:22.025Z,3.50
2022-07-31T23:57:51.277Z,3.65
